Tiempo atmosférico en la estación meteorológica de Montehermoso, Cáceres (351 m.)



Fecha
DESCASC
Temp. máxima en grados centígrados (hora)
DESCASC
Temp. mínima en grados centígrados (hora)
DESCASC
Temp. media en grados centígrados
DESCASC
Racha de viento máxima en m/sg (hora)
DESCASC
Velocidad máxima media en intervalos de 10 minutos(hora)
DESCASC
Precipitaciones diarias en mm
DESCASC
Precipitaciones de 00:00 a 06:00 en mm
DESCASC
Precipitaciones de 06:00 a 12:00 en mm
DESCASC
Precipitaciones de 12:00 a 18:00 en mm
DESCASC
Precipitaciones de 18:00 a 24:00 en mm
DESCASC
25-02-2021 15.1 (16:00) 8.1 (04:50) 11.6 8.33 (10:30) 5 (15:00) 0 0 0 0 0
24-02-2021 17.4 (16:50) 7.4 (07:00) 12.4 12.22 (13:20) 7.22 (13:20) 0 0 0 0 0
23-02-2021 16.4 (16:20) 2.5 (05:40) 9.4 8.89 (11:50) 5.28 (13:00) 0 0 0 0 0
22-02-2021 14.6 (17:10) 1.7 (08:10) 8.2 5.28 (15:20) 3.33 (00:50) 0 0 0 0 0
21-02-2021 13.9 (04:50) 6.9 (00:00) 10.4 14.72 (06:00) 8.61 (06:00) 8.6 0 7.2 1.4 0
20-02-2021 14.5 (22:10) 7.1 (00:00) 10.8 10.28 (14:50) 6.67 (13:40) 0 0 0 0 0
19-02-2021 17 (14:40) 5.3 (00:00) 11.2 8.61 (13:30) 5.83 (12:50) 0 0 0 0 0
18-02-2021 16.2 (17:00) 8 (00:00) 12.1 6.11 (17:40) 3.89 (17:20) 0 0 0 0 0
17-02-2021 17.9 (17:10) 8.6 (00:00) 13.3 5 (14:40) 3.06 (15:20) 0 0 0 0 0
16-02-2021 16 (16:40) 6.5 (00:00) 11.3 10.83 (01:00) 5 (01:00) 0 0 0 0 0
15-02-2021 17.2 (16:00) 8.4 (00:00) 12.8 10.83 (11:30) 6.67 (12:30) 0 0 0 0 0
14-02-2021 18.4 (16:20) 5.4 (00:00) 11.9 6.67 (14:10) 4.17 (15:30) 0 0 0 0 0
13-02-2021 17.4 (17:00) 4.9 (00:00) 11.1 5 (20:30) 3.06 (20:30) 0 0 0 0 0
12-02-2021 16.7 (16:50) 8 (00:00) 12.4 6.67 (05:50) 3.89 (11:40) 9.2 9 0.2 0 0
11-02-2021 15.7 (15:50) 10.3 (00:00) 13 7.78 (17:40) 4.72 (17:50) 3.6 1.6 2 0 0
10-02-2021 15.1 (15:20) 5.8 (00:00) 10.5 10.83 (04:00) 5.28 (06:00) -- -- -- 0 0.6
09-02-2021 12.3 (17:00) 8.2 (00:00) 10.3 13.33 (11:50) 6.94 (11:20) -- -- -- -- --
08-02-2021 12.9 (17:00) 7 (00:00) 9.9 10.83 (15:50) 6.39 (15:50) -- -- -- -- --
07-02-2021 10.7 (12:30) 3.2 (00:00) 6.9 7.5 (01:30) 4.72 (11:30) 5.2 0 0 0.6 4.6
06-02-2021 11.9 (15:00) 8 (00:00) 9.9 8.06 (22:50) 5 (22:50) 11.4 6.8 0.4 3.8 0.4
05-02-2021 12 (12:30) 8.4 (00:00) 10.2 5 (07:40) 2.78 (07:40) 15.6 2.2 6.2 1.4 5.8
04-02-2021 10.9 (01:10) 8.4 (00:00) 9.6 5.83 (17:30) 3.06 (17:30) 31.6 0.2 15.8 12.6 3
03-02-2021 12.2 (14:40) 9.9 (00:00) 11 9.17 (12:20) 5.56 (12:20) 13.6 0.6 1.6 10 1.4
02-02-2021 14 (15:30) 10.8 (00:00) 12.4 6.11 (16:40) 3.61 (15:40) 2.4 2 0.4 0 0
01-02-2021 16 (16:20) 6.2 (00:00) 11.1 7.78 (16:40) 5 (13:10) 0.2 0 0 0.2 0
31-01-2021 13.6 (19:30) 7.4 (00:00) 10.5 5.56 (19:50) 3.06 (19:50) 1.2 0 0.4 0.8 0
30-01-2021 14.2 (14:50) 8.6 (00:00) 11.4 12.78 (13:50) 8.61 (13:50) 5.4 5.4 0 0 0

Gráficas

Temp. máximas Temp. mínimas Temp. medias Precipitaciones Rachas de viento máximas Velocidades máximas media en intervalos de 10 minutos

Datos horarios

Fecha y hora oficial Temperatura (ºC) Velocidad del viento (km/h) Dirección del viento Racha (km/h) Dirección de racha Precipitación (mm) Presión (hPa) Tendencia (hPa) Humedad (%)
2021-02-28 23:00:00 9.4 2 Norte 4 Nordeste 0 -- -- 85
2021-02-28 22:00:00 9.9 2 Nordeste 4 Norte 0 -- -- 85
2021-02-28 21:00:00 9.3 0 Calma 3 Sudeste 0 -- -- 84
2021-02-28 20:00:00 10.7 3 Norte 5 Nordeste 0 -- -- 80
2021-02-28 19:00:00 14.4 0 Calma 19 Sudeste 0 -- -- 65
2021-02-28 18:00:00 15.9 12 Sudeste 24 Sudeste 0 -- -- 58
2021-02-28 17:00:00 16.3 14 Sudeste 23 Sudeste 0 -- -- 56
2021-02-28 16:00:00 16.2 14 Sudeste 23 Sudeste 0 -- -- 54
2021-02-28 15:00:00 15.9 14 Sudeste 23 Sudeste 0 -- -- 55
2021-02-28 14:00:00 15.4 13 Sudeste 33 Sudeste 0 -- -- 58
2021-02-28 13:00:00 13.8 18 Sudeste 33 Sudeste 0 -- -- 64
2021-02-28 12:00:00 12.9 21 Sudeste 33 Sudeste 0 -- -- 64
2021-02-28 11:00:00 11.8 15 Sudeste 30 Sudeste 0 -- -- 69
2021-02-28 10:00:00 10 10 Este 17 Este 0 -- -- 75
2021-02-28 09:00:00 6.6 4 Este 8 Este 0 -- -- 86
2021-02-28 08:00:00 6.4 4 Sudeste 13 Este 0 -- -- 84
2021-02-28 07:00:00 4.7 0 Calma 5 Este 0 -- -- 93
2021-02-28 06:00:00 5.3 3 Noroeste 4 Noroeste 0 -- -- 92
2021-02-28 05:00:00 6.1 0 Calma 4 Noroeste 0 -- -- 89
2021-02-28 04:00:00 6.9 3 Norte 5 Sur 0 -- -- 87
2021-02-28 03:00:00 9.9 5 Sudeste 18 Norte 0 -- -- 77
2021-02-28 02:00:00 11.8 6 Norte 14 Norte 0 -- -- 67
2021-02-28 01:00:00 12.3 7 Norte 14 Norte 0 -- -- 68
2021-02-28 00:00:00 12.9 7 Norte 17 Nordeste 0 -- -- 67
2021-02-27 23:00:00 13.2 9 Norte 17 Nordeste 0 -- -- 66
2021-02-27 22:00:00 13.1 5 Norte 12 Nordeste 0 -- -- 65
2021-02-27 21:00:00 12.8 5 Nordeste 9 Nordeste 0 -- -- 64
2021-02-27 20:00:00 13.5 3 Nordeste 9 Este 0 -- -- 68
2021-02-27 19:00:00 17.8 2 Norte 10 Sudeste 0 -- -- 52
2021-02-27 18:00:00 20.3 2 Sur 9 Sudeste 0 -- -- 50
2021-02-27 17:00:00 20.5 5 Sudeste 12 Sur 0 -- -- 47
2021-02-27 16:00:00 20.2 6 Sur 14 Sudeste 0 -- -- 46
2021-02-27 15:00:00 19.2 3 Noroeste 14 Sur 0 -- -- 46
2021-02-27 14:00:00 18.9 6 Sudeste 15 Este 0 -- -- 48
2021-02-27 13:00:00 17 4 Nordeste 12 Sudeste 0 -- -- 54
2021-02-27 12:00:00 14.9 7 Sudeste 11 Sudeste 0 -- -- 64
2021-02-27 11:00:00 12.7 4 Sudeste 12 Este 0 -- -- 78
2021-02-27 10:00:00 11.1 4 Este 12 Norte 0 -- -- 79
2021-02-27 09:00:00 9.3 8 Norte 16 Norte 0 -- -- 80
2021-02-27 08:00:00 6.6 6 Norte 10 Norte 0 -- -- 95
2021-02-27 07:00:00 6.2 4 Noroeste 7 Norte 0 -- -- 93
2021-02-27 06:00:00 7.2 5 Norte 10 Norte 0 -- -- 94
2021-02-27 05:00:00 6.9 3 Nordeste 6 Norte 0 -- -- 94
2021-02-27 04:00:00 7.7 3 Norte 7 Norte 0 -- -- 95
2021-02-27 03:00:00 7.7 2 Este 8 Sudeste 0 -- -- 93
2021-02-27 02:00:00 8.8 3 Este 12 Nordeste 0 -- -- 91
2021-02-27 01:00:00 9.1 0 Calma 12 Sudeste 0 -- -- 90
2021-02-27 00:00:00 11.2 6 Norte 11 Norte 0 -- -- 84
2021-02-26 23:00:00 9.7 4 Noroeste 6 Oeste 0 -- -- 92
2021-02-26 22:00:00 9.9 4 Noroeste 5 Oeste 0 -- -- 92
2021-02-26 21:00:00 10.6 2 Noroeste 9 Sudeste 0 -- -- 89
2021-02-26 20:00:00 12 3 Noroeste 5 Oeste 0 -- -- 84
2021-02-26 19:00:00 13.7 3 Norte 7 Noroeste 0 -- -- 78
2021-02-26 18:00:00 15.2 4 Norte 5 Noroeste 0 -- -- 72
2021-02-26 17:00:00 15.8 2 Sudeste 9 Sudeste 0 -- -- 67
2021-02-26 16:00:00 15.6 5 Este 16 Sudeste 0 -- -- 69
2021-02-26 15:00:00 15.6 9 Este 16 Este 0 -- -- 69
2021-02-26 14:00:00 15.6 8 Este 15 Este 0 -- -- 68
2021-02-26 13:00:00 14.4 8 Este 22 Este 0 -- -- 70
2021-02-26 12:00:00 13.4 11 Este 25 Este 0 -- -- 73
2021-02-26 11:00:00 12.7 14 Sudeste 31 Este 0 -- -- 75
2021-02-26 10:00:00 12 10 Sudeste 27 Este 0 -- -- 78
2021-02-26 09:00:00 11 10 Sudeste 25 Este 0 -- -- 80
2021-02-26 08:00:00 11.2 11 Sudeste 31 Sudeste 0 -- -- 80
2021-02-26 07:00:00 11.6 16 Sudeste 30 Sudeste 0 -- -- 78
2021-02-26 06:00:00 11.8 14 Sudeste 25 Este 0 -- -- 77
2021-02-26 05:00:00 11 9 Sudeste 15 Sudeste 0 -- -- 79
2021-02-26 04:00:00 11.2 9 Este 19 Este 0 -- -- 79
2021-02-26 03:00:00 9.1 3 Nordeste 6 Nordeste 0 -- -- 90
2021-02-26 02:00:00 8.7 3 Norte 5 Sudeste 0 -- -- 91
2021-02-26 01:00:00 10.2 3 Sudeste 7 Sudeste 0 -- -- 85
2021-02-26 00:00:00 10.3 0 Calma 9 Este 0 -- -- 85
2021-02-25 23:00:00 11.5 3 Norte 9 Norte 0 -- -- 79
2021-02-25 22:00:00 11.5 3 Norte 6 Sudeste 0 -- -- 81
2021-02-25 21:00:00 12.4 6 Sudeste 12 Nordeste 0 -- -- 75
2021-02-25 20:00:00 12.5 4 Sudeste 16 Sudeste 0 -- -- 76
2021-02-25 19:00:00 12.8 6 Sudeste 16 Sudeste 0 -- -- 74
2021-02-25 18:00:00 13.3 8 Sudeste 21 Sudeste 0 -- -- 72
2021-02-25 17:00:00 13.8 6 Sudeste 23 Este 0 -- -- 70
2021-02-25 16:00:00 15.1 12 Sudeste 28 Sudeste 0 -- -- 65
2021-02-25 15:00:00 14.6 18 Sudeste 29 Sudeste 0 -- -- 67
2021-02-25 14:00:00 13.8 13 Sudeste 29 Sudeste 0 -- -- 68
2021-02-25 13:00:00 12.5 16 Sudeste 27 Sudeste 0 -- -- 73
2021-02-25 12:00:00 10.9 14 Sudeste 26 Sudeste 0 -- -- 78
2021-02-25 11:00:00 10.2 10 Sudeste 30 Sudeste 0 -- -- 82
2021-02-25 10:00:00 9.9 15 Sudeste 29 Sudeste 0 -- -- 82
2021-02-25 09:00:00 9.6 7 Sudeste 18 Sudeste 0 -- -- 83
2021-02-25 08:00:00 9.3 12 Sur 25 Sudeste 0 -- -- 84
2021-02-25 07:00:00 9.8 10 Sudeste 20 Sudeste 0 -- -- 83
2021-02-25 06:00:00 9.9 8 Sudeste 18 Sudeste 0 -- -- 82
2021-02-25 05:00:00 8.1 3 Sudeste 9 Sudeste 0 -- -- 89
2021-02-25 04:00:00 8.8 0 Calma 10 Sudeste 0 -- -- 85
2021-02-25 03:00:00 10 0 Calma 18 Este 0 -- -- 82
2021-02-25 02:00:00 9.5 2 Sudeste 12 Sudeste 0 -- -- 86
2021-02-25 01:00:00 9.3 6 Sudeste 12 Sudeste 0 -- -- 90
2021-02-25 00:00:00 9.4 2 Noroeste 5 Este 0 -- -- 91
2021-02-24 23:00:00 9.7 0 Calma 6 Este 0 -- -- 88
2021-02-24 22:00:00 11.4 0 Calma 10 Este 0 -- -- 80
2021-02-24 21:00:00 11.5 3 Sudeste 11 Este 0 -- -- 80
2021-02-24 20:00:00 12.7 3 Este 9 Sudeste 0 -- -- 75
2021-02-24 19:00:00 14.8 4 Sudeste 25 Sudeste 0 -- -- 69
2021-02-24 18:00:00 16.6 17 Sudeste 32 Sudeste 0 -- -- 63
2021-02-24 17:00:00 17.2 20 Sudeste 32 Sudeste 0 -- -- 60
2021-02-24 16:00:00 17.2 19 Sudeste 30 Sudeste 0 -- -- 58
2021-02-24 15:00:00 16.5 20 Sudeste 34 Sudeste 0 -- -- 60
2021-02-24 14:00:00 16.1 23 Sudeste 44 Sudeste 0 -- -- 60
2021-02-24 13:00:00 14.7 21 Sudeste 39 Sudeste 0 -- -- 65
2021-02-24 12:00:00 13 23 Sudeste 36 Sudeste 0 -- -- 69
2021-02-24 11:00:00 11.5 17 Sudeste 31 Sudeste 0 -- -- 74
2021-02-24 10:00:00 10.1 11 Sudeste 26 Sudeste 0 -- -- 78
2021-02-24 09:00:00 7.8 7 Sudeste 28 Sudeste 0 -- -- 84
2021-02-24 08:00:00 7.7 16 Sudeste 31 Sudeste 0 -- -- 83
2021-02-24 07:00:00 7.4 10 Este 35 Este 0 -- -- 84
2021-02-24 06:00:00 7.9 13 Este 22 Este 0 -- -- 82
2021-02-24 05:00:00 8.5 8 Sudeste 21 Este 0 -- -- 79
2021-02-24 04:00:00 8.7 7 Sur 15 Sudeste 0 -- -- 78
2021-02-24 03:00:00 8.3 5 Sudeste 11 Sudeste 0 -- -- 79
2021-02-24 02:00:00 8 0 Calma 11 Este 0 -- -- 81
2021-02-24 01:00:00 8.6 7 Sudeste 15 Sudeste 0 -- -- 78
2021-02-24 00:00:00 8.3 3 Este 13 Sudeste 0 -- -- 79
2021-02-23 23:00:00 7.3 0 Calma 5 Sudoeste 0 -- -- 85
2021-02-23 22:00:00 8.7 0 Calma 8 Sudeste 0 -- -- 78
2021-02-23 21:00:00 9.9 3 Sudeste 8 Sur 0 -- -- 72
2021-02-23 20:00:00 10.4 3 Sudeste 7 Sudeste 0 -- -- 69
2021-02-23 19:00:00 14.1 2 Sudeste 21 Sudeste 0 -- -- 58
2021-02-23 18:00:00 16 14 Sudeste 25 Este 0 -- -- 49
2021-02-23 17:00:00 16.3 13 Sudeste 28 Sudeste 0 -- -- 48
2021-02-23 16:00:00 16.1 14 Sur 30 Sudeste 0 -- -- 49
2021-02-23 15:00:00 15.7 18 Sudeste 31 Sudeste 0 -- -- 48
2021-02-23 14:00:00 14.7 18 Sudeste 32 Sudeste 0 -- -- 55
2021-02-23 13:00:00 13.2 19 Sudeste 31 Sudeste 0 -- -- 61
2021-02-23 12:00:00 11.6 17 Sudeste 32 Sudeste 0 -- -- 63
2021-02-23 11:00:00 9.9 8 Sudeste 17 Sur 0 -- -- 68
2021-02-23 10:00:00 7.9 6 Sudeste 15 Sudeste 0 -- -- 75
2021-02-23 09:00:00 3.9 4 Nordeste 7 Nordeste 0 -- -- 90
2021-02-23 08:00:00 3.4 4 Este 10 Este 0 -- -- 90
2021-02-23 07:00:00 3.4 4 Nordeste 10 Este 0 -- -- 92
2021-02-23 06:00:00 3.2 4 Nordeste 10 Nordeste 0 -- -- 94
2021-02-23 05:00:00 2.9 2 Noroeste 9 Nordeste 0 -- -- 94
2021-02-23 04:00:00 3.5 2 Nordeste 6 Este 0 -- -- 94
2021-02-23 03:00:00 3.3 3 Noroeste 4 Noroeste 0 -- -- 93
2021-02-23 02:00:00 4.8 4 Este 8 Nordeste 0 -- -- 87
2021-02-23 01:00:00 5.6 3 Norte 9 Nordeste 0 -- -- 86
2021-02-23 00:00:00 5.7 4 Norte 8 Nordeste 0 -- -- 88
2021-02-22 23:00:00 5.4 4 Norte 6 Norte 0 -- -- 89
2021-02-22 22:00:00 6.4 2 Sudeste 5 Oeste 0 -- -- 84
2021-02-22 21:00:00 7.4 4 Noroeste 5 Noroeste 0 -- -- 80
2021-02-22 20:00:00 8.8 4 Oeste 6 Oeste 0 -- -- 73
2021-02-22 19:00:00 12.4 4 Oeste 14 Oeste 0 -- -- 58
2021-02-22 18:00:00 14.3 8 Sudoeste 15 Sudoeste 0 -- -- 49
2021-02-22 17:00:00 14.2 7 Oeste 17 Sudoeste 0 -- -- 47
2021-02-22 16:00:00 14 8 Oeste 19 Oeste 0 -- -- 51
2021-02-22 15:00:00 13.1 5 Oeste 17 Noroeste 0 -- -- 52
2021-02-22 14:00:00 12.5 7 Oeste 13 Sur 0 -- -- 52
2021-02-22 13:00:00 11.6 7 Sur 14 Sur 0 -- -- 62
2021-02-22 12:00:00 10.4 6 Sudeste 14 Sur 0 -- -- 71
2021-02-22 11:00:00 8.3 9 Sudeste 15 Sudeste 0 -- -- 78
2021-02-22 10:00:00 7.2 3 Nordeste 8 Nordeste 0 -- -- 78
2021-02-22 09:00:00 2.6 2 Noroeste 7 Norte 0 -- -- 94
2021-02-22 08:00:00 1.9 3 Norte 8 Noroeste 0 -- -- 92
2021-02-22 07:00:00 2.5 5 Noroeste 9 Oeste 0 -- -- 91
2021-02-22 06:00:00 3.4 3 Oeste 8 Oeste 0 -- -- 89
2021-02-22 05:00:00 4.5 7 Noroeste 13 Oeste 0 -- -- 82
2021-02-22 04:00:00 5.1 10 Noroeste 16 Oeste 0 -- -- 79
2021-02-22 03:00:00 5 8 Noroeste 11 Noroeste 0 -- -- 82
2021-02-22 02:00:00 5.8 6 Oeste 14 Oeste 0 -- -- 81
2021-02-22 01:00:00 7.3 10 Noroeste 18 Noroeste 0 -- -- 77
2021-02-22 00:00:00 7.3 7 Noroeste 14 Oeste 0 -- -- 81
2021-02-21 23:00:00 7.3 8 Noroeste 14 Noroeste 0 -- -- 79
2021-02-21 22:00:00 8.4 10 Noroeste 17 Noroeste 0 -- -- 75
2021-02-21 21:00:00 7 5 Noroeste 9 Noroeste 0 -- -- 87
2021-02-21 20:00:00 7.1 4 Norte 12 Nordeste 0 -- -- 87
2021-02-21 19:00:00 7.7 3 Norte 15 Nordeste 0 -- -- 85
2021-02-21 18:00:00 8.7 5 Nordeste 8 Este 0 -- -- 86
2021-02-21 17:00:00 8.9 4 Nordeste 13 Noroeste 0 -- -- 86
2021-02-21 16:00:00 9.5 12 Norte 24 Norte 0 -- -- 77
2021-02-21 15:00:00 9.2 6 Norte 15 Norte 0 -- -- 84
2021-02-21 14:00:00 8.2 10 Noroeste 19 Nordeste 0.2 -- -- 92
2021-02-21 13:00:00 7.4 8 Nordeste 20 Norte 1.2 -- -- 93
2021-02-21 12:00:00 7.1 17 Norte 28 Norte 1 -- -- 88
2021-02-21 11:00:00 7.2 12 Noroeste 25 Oeste 1.6 -- -- 90
2021-02-21 10:00:00 8.5 6 Oeste 22 Sudoeste 0.6 -- -- 95
2021-02-21 09:00:00 8.9 10 Sudoeste 28 Sur 1.4 -- -- 93
2021-02-21 08:00:00 9.7 6 Sudeste 28 Sur 2.6 -- -- 94
2021-02-21 07:00:00 11.4 9 Sudoeste 51 Sur 0 -- -- 80
2021-02-21 06:00:00 13.9 31 Sur 53 Sur 0 -- -- 59
2021-02-21 05:00:00 13.8 21 Sudeste 39 Sur 0 -- -- 54
2021-02-21 04:00:00 13.1 13 Sur 27 Sudeste 0 -- -- 58
2021-02-21 03:00:00 12.4 10 Sudeste 19 Sur 0 -- -- 62
2021-02-21 02:00:00 12.8 7 Sudeste 23 Sudeste 0 -- -- 61
2021-02-21 01:00:00 13.6 14 Sudeste 26 Sudeste 0 -- -- 57
2021-02-21 00:00:00 13.4 14 Sudeste 27 Sudeste 0 -- -- 56
2021-02-20 23:00:00 13.8 12 Sudeste 34 Sudeste 0 -- -- 50
2021-02-20 22:00:00 14.3 20 Sudeste 32 Sudeste 0 -- -- 48
2021-02-20 21:00:00 14 14 Sudeste 23 Sur 0 -- -- 49
2021-02-20 20:00:00 13.7 13 Sudeste 26 Sudeste 0 -- -- 52
2021-02-20 19:00:00 13.6 12 Sudeste 27 Sudeste 0 -- -- 56
2021-02-20 18:00:00 14.2 20 Sudeste 31 Sudeste 0 -- -- 56
2021-02-20 17:00:00 14.1 16 Sudeste 32 Sudeste 0 -- -- 59
2021-02-20 16:00:00 14.1 19 Sur 31 Sur 0 -- -- 60
2021-02-20 15:00:00 13.7 22 Sudeste 37 Sur 0 -- -- 63
2021-02-20 14:00:00 13.4 18 Sudeste 35 Sudeste 0 -- -- 71
2021-02-20 13:00:00 12.9 14 Sudeste 30 Sur 0 -- -- 73
2021-02-20 12:00:00 12.3 13 Sudeste 31 Sudeste 0 -- -- 78
2021-02-20 11:00:00 11.4 19 Sudeste 32 Sur 0 -- -- 83
2021-02-20 10:00:00 9.9 5 Sudeste 12 Sudeste 0 -- -- 92
2021-02-20 09:00:00 8.5 5 Este 12 Este 0 -- -- 93
2021-02-20 08:00:00 7.4 0 Calma 3 Oeste 0 -- -- 96
2021-02-20 07:00:00 7.7 0 Calma 12 Sur 0 -- -- 94
2021-02-20 06:00:00 7.5 0 Calma 9 Sudeste 0 -- -- 94
2021-02-20 05:00:00 7.9 3 Sudeste 10 Sudeste 0 -- -- 92
2021-02-20 04:00:00 7.2 3 Sudeste 6 Sur 0 -- -- 94
2021-02-20 03:00:00 8 2 Sudeste 9 Sudeste 0 -- -- 92
2021-02-20 02:00:00 7.6 2 Sudeste 4 Sudeste 0 -- -- 93
2021-02-20 01:00:00 8.5 3 Sudeste 8 Sur 0 -- -- 90
2021-02-20 00:00:00 8.8 0 Calma 10 Sur 0 -- -- 87
2021-02-19 23:00:00 10.3 7 Sur 12 Sur 0 -- -- 81
2021-02-19 22:00:00 9.6 3 Sur 9 Sudoeste 0 -- -- 85
2021-02-19 21:00:00 11.1 2 Sur 9 Sur 0 -- -- 79
2021-02-19 20:00:00 11.1 4 Oeste 12 Sur 0 -- -- 80
2021-02-19 19:00:00 13.2 6 Sur 13 Sur 0 -- -- 71
2021-02-19 18:00:00 14.4 7 Sur 22 Sudoeste 0 -- -- 68
2021-02-19 17:00:00 15.3 7 Sudoeste 20 Sudoeste 0 -- -- 70
2021-02-19 16:00:00 16 10 Sudoeste 23 Sudoeste 0 -- -- 66
2021-02-19 15:00:00 17 15 Sur 28 Sur 0 -- -- 59
2021-02-19 14:00:00 16.3 14 Sur 31 Sudeste 0 -- -- 62
2021-02-19 13:00:00 14.9 18 Sudeste 31 Sudeste 0 -- -- 66
2021-02-19 12:00:00 13.5 16 Sudeste 26 Sur 0 -- -- 73
2021-02-19 11:00:00 11.4 10 Sudeste 14 Sudeste 0 -- -- 80
2021-02-19 10:00:00 9.3 7 Sur 14 Sur 0 -- -- 85
2021-02-19 09:00:00 7.8 6 Sur 11 Sur 0 -- -- 93
2021-02-19 08:00:00 7 5 Sur 10 Sur 0 -- -- 97
2021-02-19 07:00:00 5.3 0 Calma 3 Este 0 -- -- 97
2021-02-19 06:00:00 5.5 2 Norte 4 Sudeste 0 -- -- 96
2021-02-19 05:00:00 5.8 0 Calma 3 Norte 0 -- -- 96
2021-02-19 04:00:00 6.6 3 Norte 4 Oeste 0 -- -- 95
2021-02-19 03:00:00 7.1 0 Calma 4 Norte 0 -- -- 95
2021-02-19 02:00:00 7.6 0 Calma 9 Sudoeste 0 -- -- 91
2021-02-19 01:00:00 8.8 5 Sudoeste 8 Sur 0 -- -- 89
2021-02-19 00:00:00 8.9 0 Calma 4 Noroeste 0 -- -- 91
2021-02-18 23:00:00 10.8 0 Calma 5 Sudoeste 0 -- -- 85
2021-02-18 22:00:00 12.2 3 Sur 8 Sur 0 -- -- 77
2021-02-18 21:00:00 11.9 3 Sur 10 Sur 0 -- -- 80
2021-02-18 20:00:00 13.3 5 Sur 11 Sudoeste 0 -- -- 72
2021-02-18 19:00:00 14.5 4 Sur 10 Sur 0 -- -- 71
2021-02-18 18:00:00 15.4 9 Sur 22 Sudoeste 0 -- -- 67
2021-02-18 17:00:00 16.2 10 Sur 19 Sur 0 -- -- 66
2021-02-18 16:00:00 15.7 10 Sur 20 Sur 0 -- -- 69
2021-02-18 15:00:00 15.3 10 Sudoeste 22 Sur 0 -- -- 68
2021-02-18 14:00:00 14.3 8 Sur 22 Oeste 0 -- -- 73
2021-02-18 13:00:00 13.8 8 Sudoeste 21 Sur 0 -- -- 74
2021-02-18 12:00:00 12.4 10 Sur 18 Sur 0 -- -- 80
2021-02-18 11:00:00 11.5 5 Oeste 10 Oeste 0 -- -- 85
2021-02-18 10:00:00 10.5 3 Oeste 6 Oeste 0 -- -- 92
2021-02-18 09:00:00 9.9 0 Calma 9 Sur 0 -- -- 94
2021-02-18 08:00:00 9.7 4 Sur 8 Sur 0 -- -- 96
2021-02-18 07:00:00 9.4 0 Calma 5 Este 0 -- -- 97
2021-02-18 06:00:00 9.5 2 Sudeste 5 Sudeste 0 -- -- 95
2021-02-18 05:00:00 10.1 3 Sur 7 Sudoeste 0 -- -- 95
2021-02-18 04:00:00 10.3 3 Sudoeste 9 Oeste 0 -- -- 94
2021-02-18 03:00:00 10.2 0 Calma 7 Oeste 0 -- -- 93
2021-02-18 02:00:00 10.6 2 Oeste 7 Sur 0 -- -- 89
2021-02-18 01:00:00 9 4 Sudoeste 7 Sudoeste 0 -- -- 97
2021-02-18 00:00:00 8.6 2 Noroeste 6 Oeste 0 -- -- 95
2021-02-17 23:00:00 9.3 2 Noroeste 5 Noroeste 0 -- -- 94
2021-02-17 22:00:00 10.3 0 Calma 4 Sur 0 -- -- 91
2021-02-17 21:00:00 11.2 0 Calma 6 Sudeste 0 -- -- 90
2021-02-17 20:00:00 12.5 0 Calma 4 Sudeste 0 -- -- 87
2021-02-17 19:00:00 15 0 Calma 13 Sudeste 0 -- -- 79
2021-02-17 18:00:00 17.3 9 Sudeste 18 Sudeste 0 -- -- 69
2021-02-17 17:00:00 17.8 7 Sudeste 15 Sudeste 0 -- -- 66
2021-02-17 16:00:00 16.7 6 Sur 17 Sur 0 -- -- 69
2021-02-17 15:00:00 16.6 9 Sur 18 Sudeste 0 -- -- 68
2021-02-17 14:00:00 16.2 8 Sur 18 Sudeste 0 -- -- 69
2021-02-17 13:00:00 15.7 7 Sudeste 16 Sudeste 0 -- -- 74
2021-02-17 12:00:00 14.7 7 Sudeste 13 Sudeste 0 -- -- 78
2021-02-17 11:00:00 12.6 5 Sudeste 10 Sudeste 0 -- -- 84
2021-02-17 10:00:00 10.8 3 Sur 5 Sur 0 -- -- 89
2021-02-17 09:00:00 9.2 0 Calma 5 Nordeste 0 -- -- 96
2021-02-17 08:00:00 9.2 0 Calma 4 Nordeste 0 -- -- 96
2021-02-17 07:00:00 9.6 0 Calma 2 Noroeste 0 -- -- 96
2021-02-17 06:00:00 9.2 0 Calma 2 Norte 0 -- -- 97
2021-02-17 05:00:00 9 0 Calma 4 Oeste 0 -- -- 95
2021-02-17 04:00:00 9.6 0 Calma 4 Noroeste 0 -- -- 96
2021-02-17 03:00:00 8.7 3 Noroeste 4 Oeste 0 -- -- 96
2021-02-17 02:00:00 10.1 0 Calma 4 Oeste 0 -- -- 92
2021-02-17 01:00:00 10.8 0 Calma 3 Norte 0 -- -- 92
2021-02-17 00:00:00 10.6 0 Calma 4 Oeste 0 -- -- 92
2021-02-16 23:00:00 10.5 3 Noroeste 4 Oeste 0 -- -- 90
2021-02-16 22:00:00 10.4 2 Norte 3 Nordeste 0 -- -- 91
2021-02-16 21:00:00 10.9 0 Calma 4 Norte 0 -- -- 89
2021-02-16 20:00:00 11.7 -- -- -- -- 0 -- -- 87
2021-02-16 19:00:00 13.8 0 Calma 3 Sudeste 0 -- -- 76
2021-02-16 18:00:00 15 3 Sudeste 10 Sudeste 0 -- -- 70
2021-02-16 17:00:00 15.7 2 Sur 10 Oeste 0 -- -- 64
2021-02-16 16:00:00 15.5 4 Sudeste 12 Sur 0 -- -- 66
2021-02-16 15:00:00 14.9 8 Sur 22 Sudeste 0 -- -- 66
2021-02-16 14:00:00 14.5 10 Sudeste 20 Sudeste 0 -- -- 65
2021-02-16 13:00:00 14.2 11 Sur 23 Sudeste 0 -- -- 64
2021-02-16 12:00:00 12.3 13 Sudeste 19 Sudeste 0 -- -- 73
2021-02-16 11:00:00 10.1 9 Sur 18 Sur 0 -- -- 81
2021-02-16 10:00:00 9.5 10 Sur 16 Sur 0 -- -- 82
2021-02-16 09:00:00 7.8 5 Sur 11 Sur 0 -- -- 88
2021-02-16 08:00:00 7.9 4 Sur 15 Sudeste 0 -- -- 86
2021-02-16 07:00:00 8.5 7 Sur 12 Sudoeste 0 -- -- 84
2021-02-16 06:00:00 9 6 Sudoeste 15 Sudoeste 0 -- -- 83
2021-02-16 05:00:00 9.2 7 Sudeste 20 Sur 0 -- -- 83
2021-02-16 04:00:00 10.1 9 Sur 22 Sur 0 -- -- 80
2021-02-16 03:00:00 10.8 9 Sur 21 Sur 0 -- -- 77
2021-02-16 02:00:00 11.9 8 Sur 35 Sur 0 -- -- 73
2021-02-16 01:00:00 12.6 18 Sudeste 39 Sudeste 0 -- -- 72
2021-02-16 00:00:00 12 10 Sudeste 24 Sur 0 -- -- 77
2021-02-15 23:00:00 12.2 10 Sudeste 23 Sudeste 0 -- -- 78
2021-02-15 22:00:00 12.3 10 Sudeste 20 Este 0 -- -- 79
2021-02-15 21:00:00 12.6 9 Sudeste 23 Sudeste 0 -- -- 78
2021-02-15 20:00:00 13.2 8 Sudeste 21 Sudeste 0 -- -- 75
2021-02-15 19:00:00 14.1 12 Sudeste 29 Sudeste 0 -- -- 73
2021-02-15 18:00:00 15.9 13 Sudeste 29 Sudeste 0 -- -- 67
2021-02-15 17:00:00 16.7 20 Sudeste 36 Sudeste 0 -- -- 62
2021-02-15 16:00:00 17.2 15 Sudeste 34 Sudeste 0 -- -- 63
2021-02-15 15:00:00 16.2 19 Sudeste 37 Sudeste 0 -- -- 65
2021-02-15 14:00:00 15.3 22 Sudeste 37 Sudeste 0 -- -- 69
2021-02-15 13:00:00 14 22 Sudeste 38 Sudeste 0 -- -- 70
2021-02-15 12:00:00 13 22 Sudeste 39 Sudeste 0 -- -- 73
2021-02-15 11:00:00 11.9 18 Sudeste 39 Este 0 -- -- 76
2021-02-15 10:00:00 10.7 15 Sudeste 33 Sudeste 0 -- -- 80
2021-02-15 09:00:00 8.7 9 Sudeste 20 Sudeste 0 -- -- 86
2021-02-15 08:00:00 8.6 8 Sudeste 21 Sudeste 0 -- -- 85
2021-02-15 07:00:00 8.7 5 Sudeste 15 Sudeste 0 -- -- 86
2021-02-15 06:00:00 9 4 Sudeste 20 Sudeste 0 -- -- 84
2021-02-15 05:00:00 10.4 12 Sudeste 26 Sudeste 0 -- -- 77
2021-02-15 04:00:00 10.7 13 Sudeste 24 Este 0 -- -- 75
2021-02-15 03:00:00 10.8 9 Este 17 Sudeste 0 -- -- 76
2021-02-15 02:00:00 11.2 9 Sudeste 24 Este 0 -- -- 74
2021-02-15 01:00:00 11.3 9 Sudeste 17 Este 0 -- -- 75
2021-02-15 00:00:00 11.6 8 Sudeste 15 Sudeste 0 -- -- 75
2021-02-14 23:00:00 11.4 4 Sudeste 13 Sudeste 0 -- -- 77
2021-02-14 22:00:00 9.6 2 Sudeste 6 Sudeste 0 -- -- 88
2021-02-14 21:00:00 10.2 0 Calma 5 Este 0 -- -- 87
2021-02-14 20:00:00 11.8 0 Calma 6 Sudeste 0 -- -- 83
2021-02-14 19:00:00 14.9 0 Calma 15 Sudeste 0 -- -- 69
2021-02-14 18:00:00 17.4 11 Sudeste 24 Sudeste 0 -- -- 56
2021-02-14 17:00:00 18.4 13 Sudeste 22 Sudeste 0 -- -- 55
2021-02-14 16:00:00 18.2 14 Sur 23 Sudeste 0 -- -- 58
2021-02-14 15:00:00 17.8 12 Sudeste 24 Sudeste 0 -- -- 58
2021-02-14 14:00:00 16.9 12 Sudeste 24 Sudeste 0 -- -- 62
2021-02-14 13:00:00 15.6 11 Sudeste 21 Sudeste 0 -- -- 68
2021-02-14 12:00:00 13.8 6 Sudeste 15 Este 0 -- -- 74
2021-02-14 11:00:00 12 8 Este 14 Sudeste 0 -- -- 77
2021-02-14 10:00:00 9.7 3 Este 10 Sudeste 0 -- -- 91
2021-02-14 09:00:00 5.8 3 Noroeste 7 Oeste 0 -- -- 97
2021-02-14 08:00:00 6.2 3 Nordeste 10 Nordeste 0 -- -- 95
2021-02-14 07:00:00 7 4 Nordeste 10 Nordeste 0 -- -- 94
2021-02-14 06:00:00 7.3 8 Nordeste 10 Nordeste 0 -- -- 95
2021-02-14 05:00:00 7 6 Nordeste 15 Nordeste 0 -- -- 97
2021-02-14 04:00:00 5.7 2 Sudeste 4 Sudeste 0 -- -- 97
2021-02-14 03:00:00 6.6 4 Noroeste 6 Oeste 0 -- -- 96
2021-02-14 02:00:00 6.7 4 Noroeste 5 Noroeste 0 -- -- 96
2021-02-14 01:00:00 6.7 3 Noroeste 5 Noroeste 0 -- -- 95
2021-02-14 00:00:00 7.7 4 Noroeste 6 Oeste 0 -- -- 93
2021-02-13 23:00:00 8.3 0 Calma 4 Noroeste 0 -- -- 92
2021-02-13 22:00:00 10.1 0 Calma 7 Sudeste 0 -- -- 85
2021-02-13 21:00:00 12.4 3 Este 18 Noroeste 0 -- -- 76
2021-02-13 20:00:00 13.2 10 Noroeste 15 Noroeste 0 -- -- 74
2021-02-13 19:00:00 14.3 7 Noroeste 12 Oeste 0 -- -- 71
2021-02-13 18:00:00 16.8 9 Oeste 17 Oeste 0 -- -- 62
2021-02-13 17:00:00 17.4 9 Sudoeste 13 Sur 0 -- -- 58
2021-02-13 16:00:00 16.9 5 Sudoeste 15 Sur 0 -- -- 60
2021-02-13 15:00:00 16.3 6 Sur 13 Sudeste 0 -- -- 66
2021-02-13 14:00:00 14.9 6 Sur 13 Sur 0 -- -- 74
2021-02-13 13:00:00 13.4 8 Sudeste 13 Sudeste 0 -- -- 78
2021-02-13 08:00:00 -- -- -- -- -- -- -- -- --
2021-02-13 07:00:00 -- -- -- -- -- -- -- -- --
2021-02-13 06:00:00 -- -- -- -- -- -- -- -- --
2021-02-13 05:00:00 5.5 0 Calma 9 Oeste 0 -- -- 95
2021-02-13 04:00:00 5.9 6 Oeste 8 Oeste 0 -- -- 97
2021-02-13 03:00:00 6.2 3 Noroeste 5 Oeste 0 -- -- 97
2021-02-13 02:00:00 6.8 3 Noroeste 4 Norte 0 -- -- 96
2021-02-13 01:00:00 7.5 0 Calma 3 Oeste 0 -- -- 94
2021-02-13 00:00:00 8.4 0 Calma 5 Sur 0 -- -- 91
2021-02-12 23:00:00 10 2 Sur 13 Noroeste 0 -- -- 84
2021-02-12 22:00:00 11.1 10 Noroeste 13 Noroeste 0 -- -- 75
2021-02-12 21:00:00 10.4 5 Noroeste 8 Oeste 0 -- -- 83
2021-02-12 20:00:00 11 4 Noroeste 8 Noroeste 0 -- -- 84
2021-02-12 19:00:00 13.7 5 Noroeste 10 Noroeste 0 -- -- 73
2021-02-12 18:00:00 16.3 8 Noroeste 15 Noroeste 0 -- -- 56
2021-02-12 17:00:00 16.7 9 Noroeste 19 Noroeste 0 -- -- 54
2021-02-12 16:00:00 15.6 9 Noroeste 22 Noroeste 0 -- -- 58
2021-02-12 15:00:00 15 10 Noroeste 22 Oeste 0 -- -- 63
2021-02-12 14:00:00 15 11 Noroeste 24 Oeste 0 -- -- 69
2021-02-12 13:00:00 13.8 11 Noroeste 19 Oeste 0 -- -- 73
2021-02-12 12:00:00 12.9 11 Noroeste 21 Oeste 0 -- -- 78
2021-02-12 11:00:00 11.7 10 Oeste 20 Noroeste 0 -- -- 88
2021-02-12 10:00:00 10.3 8 Oeste 12 Oeste 0.2 -- -- 99
2021-02-12 09:00:00 8.6 5 Oeste 15 Oeste 0 -- -- 99
2021-02-12 08:00:00 8.4 4 Noroeste 10 Oeste 0 -- -- 98
2021-02-12 07:00:00 9.6 4 Oeste 15 Oeste 0 -- -- 98
2021-02-12 06:00:00 10.5 11 Oeste 24 Oeste 0 -- -- 97
2021-02-12 05:00:00 11 8 Oeste 21 Oeste 0 -- -- 97
2021-02-12 04:00:00 11.9 10 Oeste 22 Oeste 0 -- -- 98
2021-02-12 03:00:00 12.1 9 Sudoeste 21 Sur 0.2 -- -- 99
2021-02-12 02:00:00 12.3 8 Sudoeste 23 Oeste 7 -- -- 98
2021-02-12 01:00:00 12.3 10 Sudoeste 21 Sur 1.8 -- -- 98
2021-02-12 00:00:00 12.6 9 Sur 22 Sudoeste 0 -- -- 97
2021-02-11 23:00:00 12.9 8 Sur 18 Sur 0 -- -- 94
2021-02-11 22:00:00 13.1 6 Sur 12 Sur 0 -- -- 94
2021-02-11 21:00:00 13.1 4 Sur 9 Sur 0 -- -- 95
2021-02-11 20:00:00 13.2 6 Sudeste 12 Sur 0 -- -- 95
2021-02-11 19:00:00 13.7 10 Sur 21 Sur 0 -- -- 93
2021-02-11 18:00:00 14.6 14 Sur 28 Sur 0 -- -- 89
2021-02-11 17:00:00 15.6 11 Sur 25 Sur 0 -- -- 83
2021-02-11 16:00:00 15.5 14 Sur 26 Sudeste 0 -- -- 85
2021-02-11 15:00:00 15.3 13 Sur 22 Sur 0 -- -- 88
2021-02-11 14:00:00 14.1 10 Sur 26 Sur 0 -- -- 93
2021-02-11 13:00:00 12.8 10 Sur 17 Sur 0 -- -- 100
2021-02-11 12:00:00 12.2 6 Sur 15 Sur 0.2 -- -- 100
2021-02-11 11:00:00 11.5 5 Sur 8 Sudeste 0.2 -- -- 100
2021-02-11 10:00:00 11.2 0 Calma 4 Nordeste 0.4 -- -- 100
2021-02-11 09:00:00 10.8 2 Nordeste 4 Nordeste 0.6 -- -- 99
2021-02-11 08:00:00 10.7 0 Calma 4 Norte 0.2 -- -- 99
2021-02-11 07:00:00 10.5 0 Calma 5 Norte 0.4 -- -- 99
2021-02-11 06:00:00 10.5 0 Calma 8 Nordeste 0 -- -- 99
2021-02-11 05:00:00 10.4 4 Nordeste 9 Nordeste 0.2 -- -- 99
2021-02-11 04:00:00 10.3 4 Nordeste 6 Nordeste 0.4 -- -- 98
2021-02-11 03:00:00 10.4 2 Nordeste 6 Este 0.2 -- -- 98
2021-02-11 02:00:00 10.4 3 Nordeste 4 Nordeste 0.4 -- -- 97
2021-02-11 01:00:00 10.3 2 Este 7 Este 0.4 -- -- 97
2021-02-11 00:00:00 10.5 4 Este 6 Este 0.6 -- -- 95
2021-02-10 23:00:00 11.2 0 Calma 7 Sudoeste 0 -- -- 91
2021-02-10 22:00:00 11.5 4 Oeste 6 Oeste 0 -- -- 85
2021-02-10 21:00:00 11.5 0 Calma 3 Sur 0 -- -- 88
2021-02-10 20:00:00 11.9 3 Sur 13 Oeste 0 -- -- 82
2021-02-10 19:00:00 12.5 3 Sudoeste 14 Sudoeste 0 -- -- 79
2021-02-10 18:00:00 13.3 6 Oeste 13 Sudoeste 0 -- -- 71
2021-02-10 17:00:00 14.1 6 Sudoeste 17 Sudoeste 0 -- -- 64
2021-02-10 16:00:00 14.6 8 Oeste 22 Sudoeste 0 -- -- 62
2021-02-10 15:00:00 14.8 8 Oeste 22 Sudoeste 0 -- -- 62
2021-02-10 14:00:00 14 7 Oeste 20 Oeste 0 -- -- 64
2021-02-10 13:00:00 13.1 12 Oeste 24 Oeste 0 -- -- 67
2021-02-10 12:00:00 12 8 Oeste 19 Oeste 0 -- -- 75
2021-02-10 11:00:00 10.8 5 Sur 10 Sudoeste 0 -- -- 82
2021-02-10 10:00:00 7.6 3 Norte 9 Oeste 1 -- -- 93
2021-02-10 09:00:00 5.9 4 Noroeste 10 Nordeste 0.2 -- -- 94
2021-02-10 08:00:00 7.2 5 Sur 18 Oeste 0.2 -- -- 89
2021-02-10 07:00:00 8.7 8 Oeste 35 Oeste 0.4 -- -- 82
2021-02-10 06:00:00 9.4 19 Noroeste 35 Oeste 0.4 -- -- 82
2021-02-10 05:00:00 9.3 8 Sudoeste 30 Oeste 0.4 -- -- 94
2021-02-10 04:00:00 9.8 14 Oeste 39 Oeste 0.2 -- -- 91
2021-02-10 03:00:00 10 17 Oeste 38 Sudoeste 0.4 -- -- 91
2021-02-10 02:00:00 9.6 15 Sudoeste 31 Sur 0.4 -- -- 90
2021-02-10 01:00:00 9.1 12 Sudoeste 25 Sur 0.2 -- -- 94
2021-02-10 00:00:00 9.4 9 Sudoeste 29 Oeste 0.4 -- -- 91
2021-02-09 23:00:00 9.3 12 Sudoeste 27 Sudoeste 0.4 -- -- 91
2021-02-09 22:00:00 9 10 Sudoeste 24 Sudoeste 0.2 -- -- 90
2021-02-09 21:00:00 9 11 Sudoeste 28 Oeste 0.4 -- -- 89
2021-02-09 20:00:00 9.5 12 Sudoeste 33 Oeste 0.4 -- -- 88
2021-02-09 19:00:00 10.6 23 Oeste 38 Oeste 0.4 -- -- 87
2021-02-09 18:00:00 11.9 15 Sudoeste 46 Oeste 0.4 -- -- 80
2021-02-09 17:00:00 12.3 18 Sudoeste 38 Sudoeste 0.4 -- -- 79
2021-02-09 16:00:00 11.8 16 Sudoeste 36 Sudoeste 0.4 -- -- 85
2021-02-09 15:00:00 9.5 7 Oeste 30 Oeste 0.4 -- -- 95
2021-02-09 14:00:00 9.3 15 Oeste 31 Oeste 0.2 -- -- 94
2021-02-09 13:00:00 10.5 22 Oeste 41 Oeste 0.4 -- -- 98
2021-02-09 12:00:00 10.1 20 Sudoeste 48 Sur 0.4 -- -- 98
2021-02-09 11:00:00 9.8 21 Sur 40 Sur 0.2 -- -- 98
2021-02-09 10:00:00 9.7 19 Sur 35 Sur 0.2 -- -- 99
2021-02-09 09:00:00 9.3 13 Sur 23 Sur 0.2 -- -- 99
2021-02-09 08:00:00 9.3 9 Sudoeste 20 Sur 0.2 -- -- 99
2021-02-09 07:00:00 9.2 10 Sur 26 Sur 0.2 -- -- 99
2021-02-09 06:00:00 9.2 15 Sur 27 Sur 0.2 -- -- 99
2021-02-09 05:00:00 8.8 11 Sur 21 Sudeste 0.2 -- -- 99
2021-02-09 04:00:00 8.6 11 Sur 21 Sur 0.2 -- -- 98
2021-02-09 03:00:00 8.3 12 Sur 21 Sudoeste 0.2 -- -- 97
2021-02-09 02:00:00 8.4 9 Sur 17 Sur 0.2 -- -- 96
2021-02-09 01:00:00 8.6 5 Sur 11 Sudoeste 0 -- -- 91
2021-02-09 00:00:00 8.5 4 Sur 8 Sur 0 -- -- 88
2021-02-08 23:00:00 8.6 3 Sur 14 Sudoeste 0 -- -- 83
2021-02-08 22:00:00 9 8 Sudoeste 16 Sudoeste 0 -- -- 78
2021-02-08 21:00:00 9.4 5 Sur 10 Sudoeste 0 -- -- 73
2021-02-08 20:00:00 9.8 6 Sudoeste 18 Oeste 0 -- -- 73
2021-02-08 19:00:00 10.7 15 Oeste 26 Oeste 0.2 -- -- 71
2021-02-08 18:00:00 11.9 10 Oeste 29 Oeste 0.2 -- -- 68
2021-02-08 17:00:00 12.9 18 Oeste 38 Oeste 0.2 -- -- 66
2021-02-08 16:00:00 12.5 19 Oeste 39 Oeste 0.4 -- -- 70
2021-02-08 15:00:00 12 16 Oeste 28 Oeste 0.2 -- -- 76
2021-02-08 14:00:00 11.8 13 Oeste 33 Oeste 0.4 -- -- 77
2021-02-08 13:00:00 10.9 13 Oeste 31 Sudoeste 0.4 -- -- 78
2021-02-08 12:00:00 9.3 11 Oeste 29 Oeste 0.6 -- -- 86
2021-02-08 11:00:00 8.7 12 Oeste 24 Oeste 0.4 -- -- 94
2021-02-08 10:00:00 8.2 9 Oeste 18 Oeste 0.6 -- -- 97
2021-02-08 09:00:00 7.3 2 Oeste 8 Sudoeste 0.6 -- -- 97
2021-02-08 08:00:00 7.1 4 Oeste 15 Sudoeste 0.8 -- -- 94
2021-02-08 07:00:00 7.8 10 Oeste 22 Oeste 1 -- -- 93
2021-02-08 06:00:00 8.1 9 Oeste 20 Oeste 1.2 -- -- 96
2021-02-08 05:00:00 9.3 15 Oeste 26 Sudoeste 1.4 -- -- 96
2021-02-08 04:00:00 9.6 9 Oeste 17 Sudoeste 1.6 -- -- 99
2021-02-08 03:00:00 9.4 11 Sur 37 Sur 2 -- -- 99
2021-02-08 02:00:00 9.4 17 Sur 33 Sur 2.4 -- -- 99
2021-02-08 01:00:00 8.9 12 Sur 24 Sur 2.2 -- -- 100
2021-02-08 00:00:00 8.1 3 Sur 14 Sudeste 1.8 -- -- 100
2021-02-07 23:00:00 7.8 6 Sudeste 13 Sudeste 2.2 -- -- 99
2021-02-07 22:00:00 7.8 2 Sudeste 17 Sudeste 0.6 -- -- 97
2021-02-07 21:00:00 7.9 4 Sur 10 Sur 0 -- -- 95
2021-02-07 20:00:00 7.9 3 Sur 9 Sudoeste 0 -- -- 95
2021-02-07 19:00:00 8 4 Sur 12 Sur 0 -- -- 92
2021-02-07 18:00:00 8.1 6 Sudoeste 18 Oeste 0.2 -- -- 91
2021-02-07 17:00:00 8 10 Oeste 21 Oeste 0.2 -- -- 85
2021-02-07 16:00:00 8.8 8 Oeste 22 Sudoeste 0.2 -- -- 85
2021-02-07 15:00:00 10 13 Oeste 27 Sudoeste 0 -- -- 76
2021-02-07 14:00:00 10.6 15 Oeste 24 Oeste 0 -- -- 70
2021-02-07 13:00:00 10.7 10 Noroeste 22 Norte 0 -- -- 63
2021-02-07 12:00:00 10.3 13 Noroeste 26 Noroeste 0 -- -- 67
2021-02-07 11:00:00 9.2 10 Noroeste 26 Noroeste 0 -- -- 73
2021-02-07 10:00:00 6 5 Sudeste 17 Noroeste 0 -- -- 90
2021-02-07 09:00:00 3.6 4 Norte 14 Noroeste 0 -- -- 94
2021-02-07 08:00:00 3.4 0 Calma 12 Noroeste 0 -- -- 93
2021-02-07 07:00:00 6 8 Noroeste 15 Noroeste 0 -- -- 85
2021-02-07 06:00:00 5.5 4 Noroeste 9 Norte 0 -- -- 89
2021-02-07 05:00:00 5 5 Noroeste 14 Noroeste 0 -- -- 90
2021-02-07 04:00:00 7.3 9 Noroeste 24 Norte 0 -- -- 79
2021-02-07 03:00:00 7.5 13 Noroeste 21 Norte 0 -- -- 80
2021-02-07 02:00:00 7.7 14 Norte 27 Norte 0 -- -- 79
2021-02-07 01:00:00 7.9 8 Norte 23 Norte 0 -- -- 79
2021-02-07 00:00:00 8.6 12 Norte 28 Norte 0 -- -- 77
2021-02-06 23:00:00 8.7 17 Norte 29 Noroeste 0 -- -- 79
2021-02-06 22:00:00 8.8 13 Norte 26 Norte 0 -- -- 83
2021-02-06 21:00:00 8.9 12 Norte 23 Norte 0 -- -- 92
2021-02-06 20:00:00 9.5 7 Norte 13 Nordeste 0 -- -- 94
2021-02-06 19:00:00 9.8 3 Nordeste 6 Oeste 0.4 -- -- 96
2021-02-06 18:00:00 10 3 Oeste 5 Norte 2.6 -- -- 96
2021-02-06 17:00:00 10.5 5 Norte 9 Norte 1 -- -- 91
2021-02-06 16:00:00 11.4 5 Sur 9 Sur 0.2 -- -- 89
2021-02-06 15:00:00 11.9 4 Sudeste 8 Sudeste 0 -- -- 87
2021-02-06 14:00:00 11 2 Noroeste 9 Noroeste 0 -- -- 88
2021-02-06 13:00:00 10.2 3 Noroeste 6 Noroeste 0 -- -- 94
2021-02-06 12:00:00 9.9 0 Calma 4 Sudoeste 0.2 -- -- 96
2021-02-06 11:00:00 9.7 2 Sudeste 5 Sudeste 0.2 -- -- 98
2021-02-06 10:00:00 9.2 2 Sudoeste 5 Oeste 0 -- -- 100
2021-02-06 09:00:00 8.5 2 Noroeste 3 Noroeste 0 -- -- 100
2021-02-06 08:00:00 8.1 0 Calma 2 Norte 0 -- -- 100
2021-02-06 07:00:00 8.6 0 Calma 3 Sudeste 0 -- -- 100
2021-02-06 06:00:00 9 0 Calma 4 Sudeste 0.2 -- -- 100
2021-02-06 05:00:00 9.1 2 Sur 16 Sudeste 1 -- -- 100
2021-02-06 04:00:00 9.2 6 Sudeste 15 Sudeste 3 -- -- 100
2021-02-06 03:00:00 9 2 Nordeste 5 Nordeste 0.4 -- -- 100
2021-02-06 02:00:00 8.9 4 Nordeste 6 Nordeste 1.2 -- -- 100
2021-02-06 01:00:00 9 0 Calma 4 Sudeste 1 -- -- 100
2021-02-06 00:00:00 9.1 3 Este 5 Este 1.4 -- -- 100
2021-02-05 23:00:00 9.2 2 Este 4 Sudeste 0.4 -- -- 100
2021-02-05 22:00:00 9.4 3 Sudeste 5 Sudeste 0.4 -- -- 99
2021-02-05 21:00:00 9.5 0 Calma 5 Sur 1 -- -- 99
2021-02-05 20:00:00 9.8 0 Calma 6 Sudoeste 1.8 -- -- 98
2021-02-05 19:00:00 10.2 4 Sudoeste 9 Noroeste 0.8 -- -- 97
2021-02-05 18:00:00 10.5 6 Noroeste 14 Noroeste 0 -- -- 95
2021-02-05 17:00:00 10.7 9 Noroeste 15 Noroeste 0 -- -- 96
2021-02-05 16:00:00 10.8 3 Oeste 9 Sudoeste 0.6 -- -- 96
2021-02-05 15:00:00 11.1 4 Oeste 13 Sudoeste 0.6 -- -- 96
2021-02-05 14:00:00 11.7 5 Oeste 10 Oeste 0.2 -- -- 95
2021-02-05 13:00:00 11.9 3 Nordeste 12 Nordeste 0 -- -- 92
2021-02-05 12:00:00 11.4 4 Nordeste 6 Nordeste 0.2 -- -- 94
2021-02-05 11:00:00 10.8 5 Norte 13 Nordeste 0 -- -- 96
2021-02-05 10:00:00 10.4 7 Norte 13 Nordeste 0.2 -- -- 98
2021-02-05 09:00:00 9.9 4 Nordeste 18 Este 1.8 -- -- 99
2021-02-05 08:00:00 9.8 6 Este 18 Sudeste 2 -- -- 99
2021-02-05 07:00:00 9.2 3 Nordeste 10 Este 2 -- -- 98
2021-02-05 06:00:00 9 5 Nordeste 13 Norte 0 -- -- 97
2021-02-05 05:00:00 8.7 7 Norte 14 Norte 0 -- -- 98
2021-02-05 04:00:00 8.5 5 Nordeste 11 Nordeste 1 -- -- 99
2021-02-05 03:00:00 8.6 4 Este 9 Noroeste 0 -- -- 99
2021-02-05 02:00:00 8.6 2 Este 10 Noroeste 0.2 -- -- 98
2021-02-05 01:00:00 8.8 8 Noroeste 17 Oeste 1 -- -- 98
2021-02-05 00:00:00 8.5 0 Calma 11 Este 1.2 -- -- 98
2021-02-04 23:00:00 8.5 6 Nordeste 13 Norte 0 -- -- 98
2021-02-04 22:00:00 8.7 3 Norte 9 Nordeste 0.4 -- -- 98
2021-02-04 21:00:00 8.4 5 Norte 13 Sudoeste 1 -- -- 97
2021-02-04 20:00:00 8.6 7 Oeste 16 Norte 0.2 -- -- 95
2021-02-04 19:00:00 8.5 8 Norte 19 Nordeste 0.2 -- -- 94
2021-02-04 18:00:00 9.4 4 Nordeste 21 Nordeste 0 -- -- 96
2021-02-04 17:00:00 8.7 9 Nordeste 21 Norte 0.6 -- -- 95
2021-02-04 16:00:00 8.8 9 Nordeste 20 Este 1.6 -- -- 96
2021-02-04 15:00:00 9.2 7 Nordeste 18 Este 1.8 -- -- 98
2021-02-04 14:00:00 9.8 6 Nordeste 11 Nordeste 3.4 -- -- 99
2021-02-04 13:00:00 9.4 8 Noroeste 15 Noroeste 5.2 -- -- 99
2021-02-04 12:00:00 9.4 8 Noroeste 15 Oeste 4.6 -- -- 99
2021-02-04 11:00:00 9.2 3 Oeste 8 Oeste 5.2 -- -- 99
2021-02-04 10:00:00 9.3 3 Sudeste 13 Sur 4.4 -- -- 99
2021-02-04 09:00:00 9.3 4 Sudeste 13 Sudeste 0.2 -- -- 99
2021-02-04 08:00:00 9.1 0 Calma 8 Este 0.6 -- -- 98
2021-02-04 07:00:00 9.2 3 Este 13 Sudeste 0.8 -- -- 98
2021-02-04 06:00:00 9.4 4 Sudeste 10 Sudeste 0 -- -- 98
2021-02-04 05:00:00 9.7 6 Sudeste 13 Sudeste 0 -- -- 99
2021-02-04 04:00:00 10.4 7 Sudeste 12 Sur 0.2 -- -- 99
2021-02-04 03:00:00 10.7 3 Sur 7 Sur 0 -- -- 99
2021-02-04 02:00:00 10.9 5 Sudeste 11 Sudeste 0 -- -- 99
2021-02-04 01:00:00 10.8 5 Sur 8 Sur 0 -- -- 99
2021-02-04 00:00:00 10.8 3 Sur 9 Sudeste 0 -- -- 99
2021-02-03 23:00:00 10.7 3 Sudeste 9 Sur 0 -- -- 98
2021-02-03 22:00:00 10.8 2 Sur 10 Sur 0.2 -- -- 98
2021-02-03 21:00:00 10.8 4 Sur 14 Sur 0.4 -- -- 97
2021-02-03 20:00:00 11 4 Sur 10 Sur 0 -- -- 98
2021-02-03 19:00:00 11.1 6 Sur 16 Sudoeste 0.8 -- -- 97
2021-02-03 18:00:00 11.4 9 Oeste 22 Sudoeste 0.6 -- -- 97
2021-02-03 17:00:00 11.5 13 Oeste 26 Oeste 5.4 -- -- 98
2021-02-03 16:00:00 11.9 5 Oeste 24 Sur 3.2 -- -- 98
2021-02-03 15:00:00 12.1 14 Sur 24 Sur 0 -- -- 97
2021-02-03 14:00:00 11.9 14 Sur 27 Sur 0.6 -- -- 98
2021-02-03 13:00:00 11.3 14 Sur 33 Sur 0.2 -- -- 98
2021-02-03 12:00:00 11.3 14 Sur 26 Sur 0 -- -- 98
2021-02-03 11:00:00 10.5 11 Sur 21 Sur 0.8 -- -- 98
2021-02-03 10:00:00 10.2 9 Sur 20 Sur 0.2 -- -- 99
2021-02-03 09:00:00 10 11 Sur 21 Sur 0.2 -- -- 99
2021-02-03 08:00:00 10 8 Sur 15 Sur 0.2 -- -- 99
2021-02-03 07:00:00 10 8 Sur 18 Sur 0.2 -- -- 98
2021-02-03 06:00:00 10.1 9 Sur 21 Sur 0.6 -- -- 96
2021-02-03 05:00:00 10.3 8 Sur 23 Sur 0 -- -- 94
2021-02-03 04:00:00 11.1 10 Sur 29 Sur 0 -- -- 86
2021-02-03 03:00:00 11.3 12 Sur 23 Sur 0 -- -- 85
2021-02-03 02:00:00 11.4 10 Sur 22 Sur 0 -- -- 86
2021-02-03 01:00:00 11.2 5 Sur 13 Sur 0 -- -- 88
2021-02-03 00:00:00 11.6 9 Sur 18 Sur 0 -- -- 86
2021-02-02 23:00:00 11.6 9 Sur 18 Sur 0 -- -- 86
2021-02-02 22:00:00 11.8 5 Sur 12 Sudeste 0 -- -- 86
2021-02-02 21:00:00 11.8 6 Sur 19 Sur 0 -- -- 86
2021-02-02 20:00:00 12 9 Sur 16 Sur 0 -- -- 86
2021-02-02 19:00:00 12.3 9 Sur 18 Sur 0 -- -- 85
2021-02-02 18:00:00 12.8 10 Sur 22 Sur 0 -- -- 81
2021-02-02 17:00:00 13.1 10 Sur 22 Sur 0 -- -- 80
2021-02-02 16:00:00 13.7 8 Sudoeste 22 Sudoeste 0 -- -- 75
2021-02-02 15:00:00 13.7 11 Sur 21 Sudoeste 0 -- -- 76
2021-02-02 14:00:00 12.8 8 Sudoeste 18 Sudoeste 0 -- -- 80
2021-02-02 13:00:00 13 7 Sur 16 Sudoeste 0 -- -- 87
2021-02-02 12:00:00 12.3 6 Sur 14 Sur 0 -- -- 92
2021-02-02 11:00:00 11.5 6 Sur 10 Oeste 0 -- -- 99
2021-02-02 10:00:00 11.1 5 Sudoeste 15 Sudoeste 0.2 -- -- 100
2021-02-02 09:00:00 11.1 7 Sur 17 Sur 0 -- -- 100
2021-02-02 08:00:00 11.2 5 Sur 14 Sudoeste 0 -- -- 100
2021-02-02 07:00:00 11.2 5 Sudoeste 10 Sudoeste 0.2 -- -- 100
2021-02-02 06:00:00 11.2 6 Sur 13 Sudoeste 0.6 -- -- 100
2021-02-02 05:00:00 10.9 4 Sur 8 Sur 0 -- -- 99
2021-02-02 04:00:00 10.9 3 Sudeste 5 Sur 0 -- -- 99
2021-02-02 03:00:00 10.8 3 Sur 5 Sudeste 0.8 -- -- 98
2021-02-02 02:00:00 11 2 Sudeste 7 Sudeste 0.4 -- -- 98
2021-02-02 01:00:00 11.1 4 Sudeste 7 Oeste 0.2 -- -- 97
2021-02-02 00:00:00 11.7 4 Sudoeste 14 Sudoeste 0 -- -- 92
2021-02-01 23:00:00 11.9 2 Oeste 13 Oeste 0 -- -- 88
2021-02-01 22:00:00 11.8 2 Sudoeste 6 Sudoeste 0 -- -- 87
2021-02-01 21:00:00 12.4 4 Sudoeste 18 Sudoeste 0 -- -- 83
2021-02-01 20:00:00 12.6 10 Oeste 18 Oeste 0 -- -- 82
2021-02-01 19:00:00 13.1 9 Oeste 18 Oeste 0 -- -- 81
2021-02-01 18:00:00 14.7 9 Sudoeste 24 Oeste 0 -- -- 76
2021-02-01 17:00:00 15.7 13 Sudoeste 28 Oeste 0 -- -- 73
2021-02-01 16:00:00 15.8 13 Oeste 21 Sudoeste 0 -- -- 72
2021-02-01 15:00:00 14.7 10 Oeste 22 Sudoeste 0 -- -- 76
2021-02-01 14:00:00 14.3 17 Oeste 27 Oeste 0.2 -- -- 76
2021-02-01 13:00:00 13.9 16 Oeste 26 Oeste 0 -- -- 78
2021-02-01 12:00:00 13 12 Oeste 21 Oeste 0 -- -- 83
2021-02-01 11:00:00 11.7 11 Oeste 17 Oeste 0 -- -- 87
2021-02-01 10:00:00 9.6 7 Oeste 12 Oeste 0 -- -- 96
2021-02-01 09:00:00 6.3 6 Noroeste 12 Noroeste 0 -- -- 97
2021-02-01 08:00:00 7.2 5 Noroeste 10 Sudoeste 0 -- -- 96
2021-02-01 07:00:00 7.5 5 Oeste 14 Oeste 0 -- -- 95
2021-02-01 06:00:00 8.5 8 Oeste 15 Oeste 0 -- -- 94
2021-02-01 05:00:00 8.7 8 Oeste 13 Oeste 0 -- -- 94
2021-02-01 04:00:00 9.4 9 Oeste 17 Oeste 0 -- -- 91
2021-02-01 03:00:00 9.9 7 Oeste 14 Oeste 0 -- -- 92
2021-02-01 02:00:00 9.4 7 Noroeste 11 Oeste 0 -- -- 96
2021-02-01 01:00:00 9.9 7 Oeste 12 Oeste 0 -- -- 96
2021-02-01 00:00:00 11.2 4 Oeste 19 Oeste 0 -- -- 97
2021-01-31 23:00:00 11 4 Sur 16 Oeste 0 -- -- 97
2021-01-31 22:00:00 11.9 6 Oeste 12 Oeste 0 -- -- 97
2021-01-31 21:00:00 12.7 4 Oeste 17 Oeste 0 -- -- 96
2021-01-31 20:00:00 13.5 10 Oeste 20 Oeste 0 -- -- 97
2021-01-31 19:00:00 13.1 6 Oeste 11 Oeste 0 -- -- 100
2021-01-31 18:00:00 11.5 2 Norte 9 Nordeste 0 -- -- 99
2021-01-31 17:00:00 11.3 3 Sudeste 6 Sudeste 0 -- -- 99
2021-01-31 16:00:00 11.2 3 Sudeste 6 Sudeste 0 -- -- 99
2021-01-31 15:00:00 11.1 3 Este 4 Sudeste 0 -- -- 98
2021-01-31 14:00:00 10.9 2 Este 5 Este 0.4 -- -- 98
2021-01-31 13:00:00 10.6 0 Calma 3 Sur 0.4 -- -- 98
2021-01-31 12:00:00 9.8 0 Calma 5 Oeste 0.2 -- -- 97
2021-01-31 11:00:00 9.3 0 Calma 3 Oeste 0 -- -- 96
2021-01-31 10:00:00 8.9 0 Calma 3 Norte 0.2 -- -- 95
2021-01-31 09:00:00 8.6 3 Noroeste 8 Sudoeste 0 -- -- 93
2021-01-31 08:00:00 8.8 4 Sudoeste 11 Sudoeste 0 -- -- 90
2021-01-31 07:00:00 8.5 4 Noroeste 11 Noroeste 0 -- -- 89
2021-01-31 06:00:00 8.8 9 Oeste 17 Oeste 0 -- -- 85
2021-01-31 05:00:00 8.9 7 Oeste 15 Sudoeste 0 -- -- 83
2021-01-31 04:00:00 8.7 8 Oeste 17 Sudoeste 0 -- -- 83
2021-01-31 03:00:00 7.5 7 Oeste 12 Oeste 0 -- -- 88
2021-01-31 02:00:00 7.5 3 Este 19 Oeste 0 -- -- 88
2021-01-31 01:00:00 8.8 10 Oeste 17 Oeste 0 -- -- 81
2021-01-31 00:00:00 9.1 9 Sudoeste 16 Sudoeste 0 -- -- 84
2021-01-30 23:00:00 8.8 7 Oeste 13 Oeste 0 -- -- 85
2021-01-30 22:00:00 9.3 0 Calma 14 Oeste 0 -- -- 81
2021-01-30 21:00:00 9.7 8 Oeste 15 Oeste 0 -- -- 77
2021-01-30 20:00:00 10.4 8 Sudoeste 15 Sur 0 -- -- 76
2021-01-30 19:00:00 11 6 Oeste 32 Oeste 0 -- -- 72
2021-01-30 18:00:00 12.6 16 Oeste 33 Oeste 0 -- -- 66
2021-01-30 17:00:00 12.5 12 Oeste 46 Oeste 0 -- -- 69
2021-01-30 16:00:00 13.3 22 Oeste 42 Oeste 0 -- -- 66
2021-01-30 15:00:00 13.8 26 Oeste 41 Oeste 0 -- -- 59
2021-01-30 14:00:00 13.8 26 Oeste 46 Oeste 0 -- -- 54
2021-01-30 13:00:00 13.4 27 Oeste 42 Oeste 0 -- -- 59
2021-01-30 12:00:00 12.5 20 Oeste 40 Oeste 0 -- -- 74
2021-01-30 11:00:00 11 14 Oeste 23 Oeste 0 -- -- 87
2021-01-30 10:00:00 9.8 8 Oeste 18 Oeste 0 -- -- 95
2021-01-30 09:00:00 9.4 11 Oeste 21 Oeste 0 -- -- 98
2021-01-30 08:00:00 10.3 5 Sudoeste 22 Oeste 0 -- -- 98
2021-01-30 07:00:00 11.2 12 Oeste 26 Oeste 0 -- -- 99
2021-01-30 06:00:00 11 11 Sudoeste 22 Oeste 0.4 -- -- 100
2021-01-30 05:00:00 10.5 7 Sudoeste 21 Sudoeste 1.8 -- -- 99
2021-01-30 04:00:00 10.5 9 Sur 25 Sur 2.8 -- -- 99
2021-01-30 03:00:00 10.8 10 Sur 26 Sur 0 -- -- 99
2021-01-30 02:00:00 11.1 10 Sur 21 Sudoeste 0.2 -- -- 99
2021-01-30 01:00:00 11 5 Sudoeste 17 Sur 0.2 -- -- 99
2021-01-30 00:00:00 10.9 9 Sur 16 Sudoeste 0 -- -- 99